createdAt,value
2023-01-29T00:02:20.700Z,0.70
2023-01-29T00:04:48.722Z,0.72
2023-01-29T00:07:16.941Z,0.72
2023-01-29T00:09:44.910Z,0.76
2023-01-29T00:12:12.834Z,0.74
2023-01-29T00:14:40.728Z,0.78
2023-01-29T00:17:08.830Z,0.78
2023-01-29T00:19:36.999Z,0.78
2023-01-29T00:22:04.976Z,0.82
2023-01-29T00:24:32.926Z,0.82
2023-01-29T00:27:00.896Z,0.81
2023-01-29T00:29:28.931Z,0.81
2023-01-29T00:31:59.913Z,0.82
2023-01-29T00:34:27.820Z,0.82
2023-01-29T00:37:06.043Z,0.83
2023-01-29T00:39:47.733Z,0.83
2023-01-29T00:42:34.555Z,0.84
2023-01-29T00:45:02.424Z,0.85
2023-01-29T00:47:36.295Z,0.86
2023-01-29T00:50:05.982Z,0.84
2023-01-29T00:52:33.951Z,0.77
2023-01-29T00:55:01.844Z,0.81
2023-01-29T00:57:30.716Z,0.82
2023-01-29T00:59:58.663Z,0.84
2023-01-29T01:02:45.078Z,0.87
2023-01-29T01:05:18.942Z,0.87
2023-01-29T01:07:50.909Z,0.88
2023-01-29T01:10:24.489Z,0.87
2023-01-29T01:13:03.536Z,0.94
2023-01-29T01:15:33.432Z,0.93
2023-01-29T01:18:01.819Z,0.97
2023-01-29T01:20:31.139Z,1.00
2023-01-29T01:22:58.939Z,1.00
2023-01-29T01:25:27.696Z,1.02
2023-01-29T01:30:27.197Z,1.03
2023-01-29T01:32:55.330Z,1.07
2023-01-29T01:35:23.169Z,1.14
2023-01-29T01:37:51.031Z,1.17
2023-01-29T01:40:21.773Z,1.18
2023-01-29T01:42:50.733Z,1.17
2023-01-29T01:45:49.653Z,1.18
2023-01-29T01:48:21.785Z,1.21
2023-01-29T01:50:59.942Z,1.22
2023-01-29T01:53:39.891Z,1.23
2023-01-29T01:56:10.329Z,1.22
2023-01-29T01:58:51.858Z,1.23
2023-01-29T02:01:20.117Z,1.19
2023-01-29T02:04:13.646Z,1.24
2023-01-29T02:07:00.057Z,1.26
2023-01-29T02:09:50.401Z,1.27
2023-01-29T02:12:18.209Z,1.27
2023-01-29T02:14:46.490Z,1.28
2023-01-29T02:17:19.272Z,1.30
2023-01-29T02:19:59.156Z,1.29
2023-01-29T02:23:04.366Z,1.28
2023-01-29T02:26:19.517Z,1.29
2023-01-29T02:28:57.869Z,1.28
2023-01-29T02:31:41.527Z,1.31
2023-01-29T02:34:22.039Z,1.32
2023-01-29T02:36:54.774Z,1.32
2023-01-29T02:39:35.319Z,1.30
2023-01-29T02:42:25.857Z,1.28
2023-01-29T02:45:10.889Z,1.31
2023-01-29T02:47:59.839Z,1.32
2023-01-29T02:50:40.077Z,1.33
2023-01-29T02:53:09.835Z,1.35
2023-01-29T02:55:41.346Z,1.36
2023-01-29T02:58:16.677Z,1.32
2023-01-29T03:00:46.919Z,1.34
2023-01-29T03:03:36.131Z,1.30
2023-01-29T03:06:39.049Z,1.27
2023-01-29T03:09:29.686Z,1.30
2023-01-29T03:12:00.062Z,1.27
2023-01-29T03:14:57.048Z,1.27
2023-01-29T03:17:33.783Z,1.27
2023-01-29T03:20:01.717Z,1.30
2023-01-29T03:22:29.612Z,1.30
2023-01-29T03:25:17.370Z,1.29
2023-01-29T03:28:09.715Z,1.32
2023-01-29T03:31:01.587Z,1.31
2023-01-29T03:33:29.776Z,1.34
2023-01-29T03:36:03.519Z,1.34
2023-01-29T03:38:33.375Z,1.40
2023-01-29T03:41:03.283Z,1.38
2023-01-29T03:43:56.741Z,1.38
2023-01-29T03:46:46.627Z,1.34
2023-01-29T03:49:17.465Z,1.33
2023-01-29T03:51:57.445Z,1.33
2023-01-29T03:54:31.165Z,1.35
2023-01-29T03:57:03.895Z,1.34
2023-01-29T03:59:37.706Z,1.33
2023-01-29T04:02:08.018Z,1.30
2023-01-29T04:04:37.673Z,1.30
2023-01-29T04:07:11.066Z,1.31
2023-01-29T04:09:48.334Z,1.31
2023-01-29T04:12:17.137Z,1.30
2023-01-29T04:14:47.108Z,1.32
2023-01-29T04:17:20.155Z,1.33
2023-01-29T04:19:49.365Z,1.32
2023-01-29T04:22:26.196Z,1.32
2023-01-29T04:24:58.724Z,1.32
2023-01-29T04:27:48.232Z,1.32
2023-01-29T04:30:34.696Z,1.33
2023-01-29T04:33:30.737Z,1.34
2023-01-29T04:36:07.303Z,1.33
2023-01-29T04:38:43.992Z,1.32
2023-01-29T04:41:46.455Z,1.31
2023-01-29T04:44:43.783Z,1.33
2023-01-29T04:47:26.498Z,1.36
2023-01-29T04:50:25.104Z,1.37
2023-01-29T04:53:23.611Z,1.38
2023-01-29T04:55:52.458Z,1.39
2023-01-29T04:58:41.229Z,1.40
2023-01-29T05:01:12.193Z,1.42
2023-01-29T05:03:40.158Z,1.40
2023-01-29T05:06:08.281Z,1.41
2023-01-29T05:08:36.153Z,1.41
2023-01-29T05:11:03.945Z,1.41
2023-01-29T05:13:32.834Z,1.41
2023-01-29T05:16:09.913Z,1.42
2023-01-29T05:18:37.741Z,1.42
2023-01-29T05:21:07.359Z,1.41
2023-01-29T05:23:35.196Z,1.40
2023-01-29T05:26:03.112Z,1.41
2023-01-29T05:28:31.092Z,1.36
2023-01-29T05:30:59.152Z,1.39
2023-01-29T05:33:31.167Z,1.40
2023-01-29T05:36:00.824Z,1.38
2023-01-29T05:38:28.735Z,1.40
2023-01-29T05:40:57.342Z,1.39
2023-01-29T05:43:25.838Z,1.42
2023-01-29T05:45:55.273Z,1.42
2023-01-29T05:48:23.351Z,1.41
2023-01-29T05:50:51.174Z,1.40
2023-01-29T05:53:19.044Z,1.41
2023-01-29T05:55:47.811Z,1.42
2023-01-29T05:58:15.638Z,1.42
2023-01-29T06:00:43.438Z,1.42
2023-01-29T06:03:11.426Z,1.39
2023-01-29T06:05:40.112Z,1.40
2023-01-29T06:08:08.386Z,1.41
2023-01-29T06:10:36.228Z,1.36
2023-01-29T06:13:04.101Z,1.39
2023-01-29T06:15:31.957Z,1.36
2023-01-29T06:17:59.850Z,1.34
2023-01-29T06:20:27.791Z,1.38
2023-01-29T06:22:55.655Z,1.40
2023-01-29T06:25:23.404Z,1.38
2023-01-29T06:27:54.260Z,1.37
2023-01-29T06:30:22.143Z,1.40
2023-01-29T06:32:50.089Z,1.41
2023-01-29T06:35:17.944Z,1.37
2023-01-29T06:37:45.739Z,1.40
2023-01-29T06:40:14.397Z,1.41
2023-01-29T06:42:43.028Z,1.38
2023-01-29T06:45:12.286Z,1.38
2023-01-29T06:47:40.028Z,1.40
2023-01-29T06:50:08.011Z,1.39
2023-01-29T06:52:35.801Z,1.41
2023-01-29T06:55:03.664Z,1.40
2023-01-29T06:57:31.546Z,1.42
2023-01-29T06:59:59.596Z,1.39
2023-01-29T07:02:27.665Z,1.37
2023-01-29T07:04:55.511Z,1.41
2023-01-29T07:07:23.347Z,1.40
2023-01-29T07:09:51.351Z,1.42
2023-01-29T07:12:19.360Z,1.46
2023-01-29T07:14:47.453Z,1.48
2023-01-29T07:17:15.273Z,1.50
2023-01-29T07:19:43.225Z,1.51
2023-01-29T07:22:11.048Z,1.51
2023-01-29T07:24:38.890Z,1.52
2023-01-29T07:27:06.767Z,1.44
2023-01-29T07:29:34.702Z,1.46
2023-01-29T07:32:02.542Z,1.47
2023-01-29T07:34:31.185Z,1.48
2023-01-29T07:36:58.983Z,1.49
2023-01-29T07:39:26.810Z,1.52
2023-01-29T07:41:54.679Z,1.55
2023-01-29T07:44:22.531Z,1.56
2023-01-29T07:46:50.365Z,1.53
2023-01-29T07:49:18.167Z,1.53
2023-01-29T07:51:46.026Z,1.53
2023-01-29T07:54:13.892Z,1.57
2023-01-29T07:56:41.724Z,1.59
2023-01-29T07:59:09.666Z,1.59
2023-01-29T08:01:37.637Z,1.59
2023-01-29T08:04:05.588Z,1.58
2023-01-29T08:06:33.399Z,1.60
2023-01-29T08:09:01.329Z,1.59
2023-01-29T08:11:29.362Z,1.61
2023-01-29T08:13:58.482Z,1.66
2023-01-29T08:16:26.450Z,1.69
2023-01-29T08:18:54.674Z,1.71
2023-01-29T08:21:22.731Z,1.70
2023-01-29T08:23:50.717Z,1.71
2023-01-29T08:26:18.905Z,1.76
2023-01-29T08:28:46.731Z,1.78
2023-01-29T08:31:16.352Z,1.78
2023-01-29T08:33:44.255Z,1.81
2023-01-29T08:36:12.109Z,1.81
2023-01-29T08:38:39.972Z,1.82
2023-01-29T08:41:07.996Z,1.84
2023-01-29T08:43:40.649Z,1.84
2023-01-29T08:46:08.804Z,1.82
2023-01-29T08:48:36.782Z,1.85
2023-01-29T08:51:05.715Z,1.87
2023-01-29T08:53:33.589Z,1.87
2023-01-29T08:56:01.423Z,1.89
2023-01-29T08:58:29.229Z,1.88
2023-01-29T09:00:57.096Z,1.90
2023-01-29T09:03:24.937Z,1.90
2023-01-29T09:05:52.964Z,1.87
2023-01-29T09:08:21.209Z,1.90
2023-01-29T09:10:49.254Z,1.90
2023-01-29T09:13:17.176Z,1.94
2023-01-29T09:15:45.088Z,1.97
2023-01-29T09:18:12.964Z,1.98
2023-01-29T09:20:40.935Z,2.00
2023-01-29T09:23:09.789Z,1.97
2023-01-29T09:25:37.986Z,1.99
2023-01-29T09:28:07.371Z,1.98
2023-01-29T09:30:38.714Z,2.02
2023-01-29T09:33:07.256Z,2.01
2023-01-29T09:35:35.554Z,2.02
2023-01-29T09:38:03.447Z,2.01
2023-01-29T09:40:39.856Z,2.04
2023-01-29T09:43:18.179Z,2.02
2023-01-29T09:46:02.482Z,2.04
2023-01-29T09:48:31.949Z,2.05
2023-01-29T09:51:01.032Z,2.08
2023-01-29T09:53:54.878Z,2.12
2023-01-29T09:56:24.791Z,2.10
2023-01-29T09:59:00.480Z,2.11
2023-01-29T10:01:40.526Z,2.29
2023-01-29T10:04:32.236Z,3.04
2023-01-29T10:07:05.885Z,3.17
2023-01-29T10:10:10.624Z,3.12
2023-01-29T10:12:41.824Z,2.97
2023-01-29T10:15:21.745Z,2.84
2023-01-29T10:17:58.527Z,2.75
2023-01-29T10:20:39.143Z,2.63
2023-01-29T10:23:26.201Z,2.58
2023-01-29T10:25:54.558Z,2.53
2023-01-29T10:28:44.571Z,2.46
2023-01-29T10:31:16.726Z,2.43
2023-01-29T10:34:01.448Z,2.41
2023-01-29T10:36:38.052Z,2.42
2023-01-29T10:39:05.910Z,2.42
2023-01-29T10:42:05.084Z,2.42
2023-01-29T10:44:35.729Z,2.42
2023-01-29T10:47:06.170Z,2.45
2023-01-29T10:50:11.561Z,2.48
2023-01-29T10:52:59.354Z,2.41
2023-01-29T10:56:14.006Z,2.24
2023-01-29T10:59:03.036Z,2.18
2023-01-29T11:01:31.038Z,2.16
2023-01-29T11:04:03.289Z,2.18
2023-01-29T11:06:32.965Z,2.24
2023-01-29T11:09:09.344Z,2.28
2023-01-29T11:11:50.518Z,2.32
2023-01-29T11:14:39.703Z,2.27
2023-01-29T11:17:07.624Z,2.23
2023-01-29T11:19:44.538Z,2.23
2023-01-29T11:22:24.718Z,2.20
2023-01-29T11:25:20.743Z,2.20
2023-01-29T11:27:50.947Z,2.21
2023-01-29T11:30:23.428Z,2.27
2023-01-29T11:32:52.920Z,2.28
2023-01-29T11:35:25.887Z,2.32
2023-01-29T11:37:54.097Z,2.37
2023-01-29T11:40:38.450Z,2.36
2023-01-29T11:43:21.650Z,2.28
2023-01-29T11:45:50.483Z,2.27
2023-01-29T11:48:20.274Z,2.25
2023-01-29T11:50:58.823Z,2.31
2023-01-29T11:53:40.144Z,2.34
2023-01-29T11:56:35.607Z,2.37
2023-01-29T11:59:05.820Z,2.38
2023-01-29T12:01:40.599Z,2.38
2023-01-29T12:04:26.722Z,2.32
2023-01-29T12:06:54.851Z,2.38
2023-01-29T12:09:28.792Z,2.34
2023-01-29T12:11:57.152Z,2.31
2023-01-29T12:14:35.569Z,2.32
2023-01-29T12:17:09.965Z,2.32
2023-01-29T12:19:50.514Z,2.36
2023-01-29T12:22:47.403Z,2.30
2023-01-29T12:25:31.494Z,2.37
2023-01-29T12:28:07.232Z,2.42
2023-01-29T12:30:52.181Z,2.51
2023-01-29T12:33:42.987Z,2.53
2023-01-29T12:36:31.660Z,2.60
2023-01-29T12:39:00.559Z,2.64
2023-01-29T12:41:38.039Z,2.73
2023-01-29T12:44:20.091Z,2.63
2023-01-29T12:46:51.740Z,2.61
2023-01-29T12:49:36.822Z,2.55
2023-01-29T12:52:14.877Z,2.60
2023-01-29T12:54:59.238Z,2.67
2023-01-29T12:57:57.711Z,2.71
2023-01-29T13:00:28.323Z,2.72
2023-01-29T13:03:09.868Z,2.74
2023-01-29T13:05:53.408Z,2.74
2023-01-29T13:08:25.262Z,2.75
2023-01-29T13:10:54.294Z,2.78
2023-01-29T13:13:40.703Z,2.80
2023-01-29T13:16:11.602Z,2.81
2023-01-29T13:18:46.502Z,2.70
2023-01-29T13:21:22.836Z,2.67
2023-01-29T13:23:56.098Z,2.61
2023-01-29T13:26:24.344Z,2.66
2023-01-29T13:28:52.874Z,2.68
2023-01-29T13:31:34.887Z,2.71
2023-01-29T13:34:14.735Z,2.75
2023-01-29T13:37:03.897Z,2.75
2023-01-29T13:39:38.575Z,2.76
2023-01-29T13:42:23.054Z,2.76
2023-01-29T13:44:52.503Z,2.75
2023-01-29T13:47:27.750Z,2.70
2023-01-29T13:50:18.716Z,2.67
2023-01-29T13:52:52.573Z,2.70
2023-01-29T13:55:21.200Z,2.70
2023-01-29T13:57:53.969Z,2.66
2023-01-29T14:00:23.472Z,2.69
2023-01-29T14:02:57.524Z,2.68
2023-01-29T14:05:31.876Z,2.67
2023-01-29T14:08:03.103Z,2.67
2023-01-29T14:10:32.387Z,2.68
2023-01-29T14:13:22.822Z,2.68
2023-01-29T14:15:59.981Z,2.52
2023-01-29T14:18:29.751Z,2.61
2023-01-29T14:20:58.975Z,2.64
2023-01-29T14:23:45.231Z,2.59
2023-01-29T14:26:25.459Z,2.57
2023-01-29T14:29:06.903Z,2.59
2023-01-29T14:32:00.972Z,2.57
2023-01-29T14:34:34.195Z,2.60
2023-01-29T14:37:16.429Z,2.51
2023-01-29T14:39:56.321Z,2.50
2023-01-29T14:42:35.814Z,2.52
2023-01-29T14:45:29.960Z,2.51
2023-01-29T14:48:10.831Z,2.44
2023-01-29T14:50:39.182Z,2.32
2023-01-29T14:53:18.191Z,2.36
2023-01-29T14:55:46.832Z,2.32
2023-01-29T14:58:39.182Z,2.34
2023-01-29T15:01:12.439Z,2.33
2023-01-29T15:03:46.165Z,2.28
2023-01-29T15:06:32.132Z,2.23
2023-01-29T15:09:15.412Z,2.18
2023-01-29T15:12:04.801Z,2.12
2023-01-29T15:14:39.561Z,2.21
2023-01-29T15:17:18.224Z,2.21
2023-01-29T15:19:49.414Z,2.22
2023-01-29T15:22:22.019Z,2.22
2023-01-29T15:25:04.240Z,2.24
2023-01-29T15:27:32.330Z,2.24
2023-01-29T15:30:01.661Z,2.25
2023-01-29T15:32:36.926Z,2.25
2023-01-29T15:35:29.254Z,2.24
2023-01-29T15:38:06.522Z,2.23
2023-01-29T15:40:35.028Z,2.20
2023-01-29T15:43:03.030Z,2.20
2023-01-29T15:45:34.922Z,2.18
2023-01-29T15:48:08.818Z,2.14
2023-01-29T15:50:38.518Z,2.18
2023-01-29T15:53:08.789Z,2.16
2023-01-29T15:55:36.675Z,2.17
2023-01-29T15:58:04.725Z,2.15
2023-01-29T16:00:32.744Z,2.16
2023-01-29T16:03:02.753Z,2.18
2023-01-29T16:05:31.564Z,2.15
2023-01-29T16:07:59.547Z,2.11
2023-01-29T16:10:33.189Z,1.96
2023-01-29T16:13:01.270Z,1.93
2023-01-29T16:15:35.095Z,1.95
2023-01-29T16:18:05.163Z,1.97
2023-01-29T16:20:53.602Z,1.98
2023-01-29T16:23:38.072Z,1.99
2023-01-29T16:26:09.954Z,2.01
2023-01-29T16:28:42.809Z,2.02
2023-01-29T16:31:11.275Z,2.03
2023-01-29T16:33:40.248Z,2.04
2023-01-29T16:36:22.216Z,2.04
2023-01-29T16:39:04.197Z,2.04
2023-01-29T16:41:37.502Z,2.04
2023-01-29T16:44:29.136Z,2.03
2023-01-29T16:46:57.065Z,2.01
2023-01-29T16:49:28.362Z,2.01
2023-01-29T16:51:57.799Z,2.05
2023-01-29T16:54:26.248Z,2.02
2023-01-29T16:56:56.187Z,2.03
2023-01-29T16:59:33.203Z,2.02
2023-01-29T17:02:01.391Z,2.01
2023-01-29T17:04:29.436Z,1.99
2023-01-29T17:06:59.373Z,1.98
2023-01-29T17:09:32.586Z,1.99
2023-01-29T17:12:05.974Z,1.93
2023-01-29T17:14:34.538Z,1.86
2023-01-29T17:17:18.676Z,1.81
2023-01-29T17:19:46.704Z,1.78
2023-01-29T17:22:17.484Z,1.81
2023-01-29T17:24:45.429Z,1.83
2023-01-29T17:27:21.272Z,1.83
2023-01-29T17:30:16.009Z,1.82
2023-01-29T17:32:45.184Z,1.77
2023-01-29T17:35:16.332Z,1.69
2023-01-29T17:37:45.421Z,1.68
2023-01-29T17:40:36.747Z,1.68
2023-01-29T17:43:04.622Z,1.67
2023-01-29T17:45:32.522Z,1.68
2023-01-29T17:48:00.316Z,1.67
2023-01-29T17:50:29.488Z,1.67
2023-01-29T17:52:57.392Z,1.68
2023-01-29T17:55:25.180Z,1.68
2023-01-29T17:57:53.178Z,1.68
2023-01-29T18:00:23.212Z,1.69
2023-01-29T18:02:51.238Z,1.69
2023-01-29T18:05:19.651Z,1.63
2023-01-29T18:07:48.055Z,1.57
2023-01-29T18:10:18.336Z,1.57
2023-01-29T18:12:46.341Z,1.58
2023-01-29T18:15:14.249Z,1.62
2023-01-29T18:17:42.487Z,1.66
2023-01-29T18:20:21.896Z,1.59
2023-01-29T18:22:49.848Z,1.55
2023-01-29T18:25:18.022Z,1.52
2023-01-29T18:27:46.206Z,1.44
2023-01-29T18:30:14.376Z,1.36
2023-01-29T18:32:42.164Z,1.38
2023-01-29T18:35:10.605Z,1.35
2023-01-29T18:37:38.434Z,1.37
2023-01-29T18:40:07.102Z,1.37
2023-01-29T18:42:37.011Z,1.38
2023-01-29T18:45:05.218Z,1.40
2023-01-29T18:47:33.209Z,1.45
2023-01-29T18:50:00.956Z,1.43
2023-01-29T18:52:28.816Z,1.43
2023-01-29T18:54:56.709Z,1.46
2023-01-29T18:58:27.287Z,1.44
2023-01-29T19:00:13.251Z,1.39
2023-01-29T19:02:41.071Z,1.27
2023-01-29T19:05:09.105Z,1.24
2023-01-29T19:07:36.906Z,1.22
2023-01-29T19:10:07.967Z,1.22
2023-01-29T19:12:36.193Z,1.22
2023-01-29T19:15:04.178Z,1.19
2023-01-29T19:17:32.138Z,1.18
2023-01-29T19:20:03.359Z,1.13
2023-01-29T19:22:31.659Z,1.10
2023-01-29T19:24:59.707Z,1.06
2023-01-29T19:27:31.475Z,1.02
2023-01-29T19:30:00.633Z,1.02
2023-01-29T19:32:32.947Z,1.00
2023-01-29T19:35:07.330Z,0.92
2023-01-29T19:37:35.196Z,0.90
2023-01-29T19:40:03.261Z,0.87
2023-01-29T19:42:31.189Z,0.85
2023-01-29T19:44:59.142Z,0.81
2023-01-29T19:47:27.090Z,0.80
2023-01-29T19:49:55.097Z,0.76
2023-01-29T19:52:51.104Z,0.69
2023-01-29T19:55:20.346Z,0.66
2023-01-29T19:57:48.385Z,0.62
2023-01-29T20:00:18.586Z,0.58
2023-01-29T20:02:46.950Z,0.56
2023-01-29T20:05:15.547Z,0.54
2023-01-29T20:07:43.763Z,0.50
2023-01-29T20:10:18.169Z,0.48
2023-01-29T20:12:47.033Z,0.45
2023-01-29T20:15:15.340Z,0.43
2023-01-29T20:17:43.272Z,0.43
2023-01-29T20:20:11.856Z,0.40
2023-01-29T20:22:39.615Z,0.34
2023-01-29T20:25:07.880Z,0.28
2023-01-29T20:27:35.773Z,0.25
2023-01-29T20:30:03.696Z,0.25
2023-01-29T20:32:32.897Z,0.18
2023-01-29T20:35:00.769Z,0.17
2023-01-29T20:37:28.641Z,0.14
2023-01-29T20:39:56.504Z,0.09
2023-01-29T20:42:24.368Z,0.12
2023-01-29T20:44:52.388Z,0.08
2023-01-29T20:47:20.374Z,0.08
2023-01-29T20:49:48.257Z,0.08
2023-01-29T20:52:16.181Z,0.05
2023-01-29T20:54:44.068Z,0.03
2023-01-29T20:57:11.949Z,-0.01
2023-01-29T20:59:40.132Z,-0.03
2023-01-29T21:02:08.154Z,-0.06
2023-01-29T21:04:36.240Z,-0.03
2023-01-29T21:07:04.243Z,-0.06
2023-01-29T21:09:32.199Z,-0.04
2023-01-29T21:12:00.150Z,-0.10
2023-01-29T21:14:28.017Z,-0.10
2023-01-29T21:16:56.138Z,-0.10
2023-01-29T21:19:23.947Z,-0.08
2023-01-29T21:21:51.819Z,-0.10
2023-01-29T21:24:20.111Z,-0.11
2023-01-29T21:26:48.169Z,-0.16
2023-01-29T21:29:16.072Z,-0.19
2023-01-29T21:31:44.120Z,-0.27
2023-01-29T21:34:12.065Z,-0.27
2023-01-29T21:36:44.710Z,-0.29
2023-01-29T21:39:18.355Z,-0.33
2023-01-29T21:42:08.432Z,-0.35
2023-01-29T21:44:36.629Z,-0.40
2023-01-29T21:47:13.416Z,-0.42
2023-01-29T21:49:42.502Z,-0.44
2023-01-29T21:52:10.908Z,-0.50
2023-01-29T21:54:41.095Z,-0.52
2023-01-29T21:57:13.175Z,-0.51
2023-01-29T21:59:41.384Z,-0.49
2023-01-29T22:02:13.563Z,-0.50
2023-01-29T22:04:42.171Z,-0.53
2023-01-29T22:07:11.651Z,-0.57
2023-01-29T22:09:39.668Z,-0.56
2023-01-29T22:12:08.063Z,-0.56
2023-01-29T22:14:36.052Z,-0.59
2023-01-29T22:17:04.077Z,-0.57
2023-01-29T22:19:32.051Z,-0.56
2023-01-29T22:21:59.891Z,-0.56
2023-01-29T22:24:27.751Z,-0.57
2023-01-29T22:26:55.578Z,-0.57
2023-01-29T22:29:23.407Z,-0.61
2023-01-29T22:31:51.272Z,-0.62
2023-01-29T22:34:19.033Z,-0.65
2023-01-29T22:36:46.776Z,-0.67
2023-01-29T22:39:14.620Z,-0.71
2023-01-29T22:41:42.405Z,-0.75
2023-01-29T22:44:10.601Z,-0.77
2023-01-29T22:46:38.447Z,-0.81
2023-01-29T22:49:06.289Z,-0.81
2023-01-29T22:51:34.083Z,-0.86
2023-01-29T22:54:02.729Z,-0.89
2023-01-29T22:56:33.289Z,-0.82
2023-01-29T22:59:02.699Z,-0.80
2023-01-29T23:01:32.153Z,-0.81
2023-01-29T23:03:59.943Z,-0.76
2023-01-29T23:06:27.761Z,-0.75
2023-01-29T23:08:55.670Z,-0.78
2023-01-29T23:11:24.741Z,-0.83
2023-01-29T23:13:53.750Z,-0.84
2023-01-29T23:16:27.749Z,-0.86
2023-01-29T23:18:56.416Z,-0.88
2023-01-29T23:21:26.067Z,-0.90
2023-01-29T23:23:55.523Z,-0.86
2023-01-29T23:26:42.043Z,-0.86
2023-01-29T23:29:10.093Z,-0.88
2023-01-29T23:31:38.026Z,-0.94
2023-01-29T23:34:05.816Z,-0.93
2023-01-29T23:36:33.642Z,-0.94
2023-01-29T23:39:01.568Z,-0.94
2023-01-29T23:41:29.378Z,-0.94
2023-01-29T23:43:57.218Z,-0.94
2023-01-29T23:46:25.036Z,-0.93
2023-01-29T23:48:52.865Z,-0.94
2023-01-29T23:51:20.752Z,-0.92
2023-01-29T23:53:48.535Z,-0.94
2023-01-29T23:56:16.462Z,-0.98
2023-01-29T23:58:44.414Z,-0.98
